Home > Products > Valid Products > TAF

000
FTUS46 KPQR 310529
TAFHIO
TAF
KHIO 310529Z 3106/0106 15005KT 6SM -RA BR OVC080
     FM310900 15003KT 2SM -RA BR OVC070
     FM311200 17005KT P6SM -RA BKN025
     FM311400 18003KT 2SM -RA OVC035
     FM311800 18005KT 6SM BR VCSH OVC050=



000
FTUS46 KPQR 310529
TAFPDX
TAF
KPDX 310529Z 3106/0106 19006KT 6SM -RA BR OVC080
     FM311200 15005KT 6SM -RA BR BKN025
     FM311800 17006KT P6SM VCSH BKN050
     FM010000 08006KT P6SM VCSH BKN100=



000
FTUS46 KPQR 310529
TAFONP
TAF
KONP 310529Z 3106/0106 23005KT 4SM -RA BR BKN009 OVC012
     FM311500 23006KT 4SM -RA BR OVC015
     FM311800 21006KT 6SM BR VCSH BKN050
     FM010400 00000KT 2SM BR OVC050=



000
FTUS46 KPQR 310529
TAFSLE
TAF
KSLE 310529Z 3106/0106 16003KT 6SM -RA BR BKN009 OVC018
     FM311600 17006KT 4SM BR OVC035
     FM311900 17007KT P6SM VCSH BKN050=



000
FTUS46 KPQR 310529
TAFTTD
TAF
KTTD 310529Z 3106/0106 09008KT 6SM -RA BR OVC080
     FM311300 21005KT 4SM -RA BR SCT015 BKN035
     FM311800 15005KT P6SM VCSH OVC050
     FM010000 00000KT P6SM VCSH BKN100=



000
FTUS46 KPQR 310529
TAFAST
TAF
KAST 310529Z 3106/0106 22003KT 6SM -RA BR BKN030 OVC045
     FM311200 20005KT P6SM -RA SCT025 BKN050
     FM311800 22007KT P6SM VCSH BKN060 BKN100=



000
FTUS46 KPQR 310529
TAFEUG
TAF
KEUG 310529Z 3106/0106 17004KT 6SM -RA BR BKN015 OVC035
     FM311300 19003KT 2SM -RA BR BKN015 OVC035
     FM311600 20005KT P6SM OVC050
     FM312100 21005KT P6SM VCSH OVC050=



000
FTUS46 KPQR 310318 AAB
TAFTTD
TAF AMD
KTTD 310318Z 3103/3124 09008KT 5SM -RA BR SCT015 BKN035 OVC080
     FM311300 21005KT 4SM -RA BR SCT015 BKN035
     FM311800 15005KT P6SM OVC050=



000
FTUS46 KPQR 310317 AAB
TAFHIO
TAF AMD
KHIO 310317Z 3103/3124 12005KT 5SM -RA BR SCT015 OVC080
     FM310400 15005KT 4SM -RA BR BKN015 OVC080
     FM311200 22005KT P6SM -RA BKN025
     FM311400 18003KT 2SM -RA OVC035
     FM311800 18005KT 6SM -RA OVC050=



000
FTUS46 KPQR 310315 AAB
TAFAST
TAF AMD
KAST 310315Z 3103/3124 25003KT 6SM -RA BR BKN035 OVC050
     FM310400 22005KT 6SM -RA BR OVC030
     FM311200 20005KT P6SM -RA BKN050
     FM312100 22007KT P6SM BKN100=



000
FTUS46 KPQR 310236 AAB
TAFPDX
TAF AMD
KPDX 310236Z 3103/3124 21004KT 6SM -RA BR BKN015 BKN030 OVC100
     FM311200 18005KT 6SM -RA BR BKN025
     FM311800 15006KT P6SM -RA BKN050=



000
FTUS46 KPQR 310201 AAB
TAFONP
TAF AMD
KONP 310201Z 3102/3124 25003KT 6SM -RA BR BKN015 OVC050
     FM310400 23005KT 4SM -RA BR OVC009
     FM311500 23006KT 4SM BR OVC015
     FM311800 21006KT 4SM BR BKN050=



000
FTUS46 KPQR 310109 AAA
TAFHIO
TAF AMD
KHIO 310109Z 3101/3124 24005KT 5SM -RA BR BKN009 BKN040
     FM311200 22005KT P6SM -RA BKN025
     FM311400 18003KT 2SM -RA OVC035
     FM311800 18005KT 6SM -RA OVC050=



000
FTUS46 KPQR 310109 AAA
TAFTTD
TAF AMD
KTTD 310109Z 3101/3124 10012G18KT 5SM -RA BR SCT025 BKN040 OVC080
     FM310300 21010KT 5SM -RA BR OVC035
     FM311300 21005KT 4SM -RA BR SCT015 BKN035
     FM311800 15005KT P6SM OVC050=



000
FTUS46 KPQR 310108 AAA
TAFONP
TAF AMD
KONP 310108Z 3101/3124 25003KT 5SM -RA BR BKN004 BKN015 OVC050
     FM310400 23005KT 4SM -RA BR OVC009
     FM311500 23006KT 4SM BR OVC015
     FM311800 21006KT 4SM BR BKN050=



000
FTUS46 KPQR 310107 AAA
TAFAST
TAF AMD
KAST 310107Z 3101/3124 25010KT 5SM -RA BR SCT008 BKN015 OVC050
     FM310400 22005KT 5SM -RA OVC030
     FM311200 20005KT P6SM -RA BKN050
     FM312100 22007KT P6SM BKN100=



000
FTUS46 KPQR 310107 AAA
TAFPDX
TAF AMD
KPDX 310107Z 3101/3124 12012KT 6SM -RA SCT015 BKN050 OVC100
     FM310200 21004KT 6SM -RA SCT015 BKN050 OVC100
     FM311200 18005KT 6SM -RA BR BKN025
     FM311800 15006KT P6SM -RA BKN050=



000
FTUS46 KPQR 302340
TAFSLE
TAF
KSLE 302340Z 3100/3124 14005KT 6SM -RA BR SCT006 OVC080
     FM310300 VRB04KT 4SM -RA BR BKN015 OVC035
     FM310600 VRB03KT 4SM -RA BR OVC009
     FM311600 17006KT 4SM BR BKN015 OVC035
     FM311900 17007KT P6SM BKN050=



000
FTUS46 KPQR 302340
TAFPDX
TAF
KPDX 302340Z 3100/3124 12012KT 6SM -RA SCT015 BKN050 OVC100
     FM310100 21004KT 6SM -RA SCT015 BKN050 OVC100
     FM310300 14005KT 5SM -RA BR SCT025 BKN040
     FM311200 18005KT 6SM -RA BR BKN025
     FM311800 15006KT P6SM -RA BKN050=



000
FTUS46 KPQR 302340
TAFEUG
TAF
KEUG 302340Z 3100/3124 19004KT 6SM -RA FEW015 OVC060
     FM310400 21004KT 4SM -RA BR BKN015 OVC035
     FM311300 19003KT 2SM -RA BR BKN015 OVC035
     FM311600 20005KT P6SM OVC050=



000
FTUS46 KPQR 302340
TAFTTD
TAF
KTTD 302340Z 3100/3124 10012G18KT 5SM -RA BR BKN025 BKN040 OVC080
     FM310300 21010KT 5SM -RA BR OVC035
     FM311300 21005KT 4SM -RA BR SCT015 BKN035
     FM311800 15005KT P6SM OVC050=



000
FTUS46 KPQR 302340
TAFONP
TAF
KONP 302340Z 3100/3124 25007KT 5SM -RA BR BKN007 BKN015 OVC050
     FM310400 23005KT 4SM -RA BR OVC009
     FM311500 23006KT 4SM BR OVC015
     FM311800 21006KT 4SM BR BKN050=



000
FTUS46 KPQR 302340
TAFHIO
TAF
KHIO 302340Z 3100/3124 24005KT 6SM -RA BR SCT015 BKN040 OVC060
     FM311200 22005KT P6SM -RA BKN025
     FM311400 18003KT 2SM -RA OVC035
     FM311800 18005KT 6SM -RA OVC050=



000
FTUS46 KPQR 302340
TAFAST
TAF
KAST 302340Z 3100/3124 25010KT 6SM -RA BR SCT008 BKN015 OVC050
     FM310400 22005KT 5SM -RA OVC030
     FM311200 20005KT P6SM -RA BKN050
     FM312100 22007KT P6SM BKN100=



000
FTUS46 KPQR 302140 AAB
TAFPDX
TAF AMD
KPDX 302140Z 3022/3118 11012KT P6SM -RA FEW014 SCT070 BKN090
      TEMPO 3022/3023 16010KT 5SM RA OVC090
     FM302300 11008KT 5SM -RA SCT015 BKN050
     FM310300 14005KT 5SM -RA BR SCT025 BKN040
     FM311200 18005KT 6SM -RA BR BKN025=



000
FTUS46 KPQR 302140 AAB
TAFPDX
TAF AMD
KPDX 302140Z 3022/3118 11012KT P6SM -RA FEW014 SCT070 BKN090
      TEMPO 3022/3023 16010KT 5SM RA OVC090
     FM302300 11008KT 5SM -RA SCT015 BKN050
     FM310300 14005KT 5SM -RA BR SCT025 BKN040
     FM311200 18005KT 6SM -RA BR BKN025=



000
FTUS46 KPQR 302050 AAA
TAFPDX
TAF AMD
KPDX 302050Z 3021/3118 11012KT P6SM -RA FEW014 SCT070 BKN090
     FM302300 11008KT 5SM -RA SCT015 BKN050
     FM310300 14005KT 5SM -RA BR SCT025 BKN040
     FM311200 18005KT 6SM -RA BR BKN025=



000
FTUS46 KPQR 302016 AAB
TAFONP
TAF AMD
KONP 302016Z 3020/3118 18011G21KT P6SM -RA BKN015 OVC025
     FM302100 19013G23KT 5SM -RA BR BKN025 OVC050
     FM310400 21005KT 5SM -RA OVC050
     FM311200 23006KT P6SM BKN050=



000
FTUS46 KPQR 301908 AAA
TAFONP
TAF AMD
KONP 301908Z 3019/3118 18011KT P6SM -RA BKN015 OVC025
     FM302100 19010G20KT 5SM -RA BR BKN025 OVC050
     FM310400 21005KT 5SM -RA OVC050
     FM311200 23006KT P6SM BKN050=



000
FTUS46 KPQR 301748 AAA
TAFEUG
TAF AMD
KEUG 301748Z 3018/3118 23004KT 3SM BR SCT002 SCT050 BKN100
     FM302100 17004KT 3SM -RA BR SCT015 BKN050
     FM302300 19004KT 6SM -RA OVC050
     FM310400 VRB04KT 4SM -RA BR BKN015 OVC035=



000
FTUS46 KPQR 301748 AAA
TAFEUG
TAF AMD
KEUG 301748Z 3018/3118 23004KT 3SM BR SCT002 SCT050 BKN100
     FM302100 17004KT 3SM -RA BR SCT015 BKN050
     FM302300 19004KT 6SM -RA OVC050
     FM310400 VRB04KT 4SM -RA BR BKN015 OVC035=



000
FTUS46 KPQR 301747 AAB
TAFAST
TAF AMD
KAST 301747Z 3018/3118 14006KT P6SM -RA SCT025 BKN035
     FM302100 20010G15KT 4SM -RA BR BKN025 OVC050
     FM310400 22005KT 5SM -RA OVC050
     FM311200 22005KT P6SM -RA BKN050=



000
FTUS46 KPQR 301747 AAB
TAFAST
TAF AMD
KAST 301747Z 3018/3118 14006KT P6SM -RA SCT025 BKN035
     FM302100 20010G15KT 4SM -RA BR BKN025 OVC050
     FM310400 22005KT 5SM -RA OVC050
     FM311200 22005KT P6SM -RA BKN050=



000
FTUS46 KPQR 301746 AAA
TAFAST
TAF AMD
KAST 301746Z 3018/3118 14006KT P6SM -RA BKN025 OVC035
     FM302100 20010G15KT 4SM -RA BR BKN025 OVC050
     FM310400 22005KT 5SM -RA OVC050
     FM311200 22005KT P6SM -RA BKN050=



000
FTUS46 KPQR 301746 AAA
TAFAST
TAF AMD
KAST 301746Z 3018/3118 14006KT P6SM -RA BKN025 OVC035
     FM302100 20010G15KT 4SM -RA BR BKN025 OVC050
     FM310400 22005KT 5SM -RA OVC050
     FM311200 22005KT P6SM -RA BKN050=



000
FTUS46 KPQR 301745
TAFTTD
TAF
KTTD 301745Z 3018/3118 09015G23KT P6SM -RA BKN050 OVC080
     FM310000 08012KT 6SM -RA BR OVC050
     FM310300 09010KT 5SM -RA BR OVC025
     FM311300 09005KT 4SM -RA BR SCT015 BKN025=



000
FTUS46 KPQR 301745
TAFONP
TAF
KONP 301745Z 3018/3118 12007KT P6SM -RA OVC025
     FM302100 19010G20KT 5SM -RA BR BKN025 OVC050
     FM310400 21005KT 5SM -RA OVC050
     FM311200 23006KT P6SM BKN050=



000
FTUS46 KPQR 301745
TAFPDX
TAF
KPDX 301745Z 3018/3118 12010KT 6SM -RA BR SCT050 BKN100
     FM302300 11008KT 5SM -RA BKN050
     FM310300 14005KT 5SM -RA BR SCT025 BKN040
     FM311200 18005KT 6SM -RA BR BKN025=



000
FTUS46 KPQR 301745
TAFSLE
TAF
KSLE 301745Z 3018/3118 14006KT 2SM -RA BR BKN007
     FM302200 14005KT 3SM -RA BR OVC005
     FM310300 VRB04KT 4SM -RA BR BKN015 OVC035=



000
FTUS46 KPQR 301745
TAFAST
TAF
KAST 301745Z 3018/3118 14006KT P6SM -RA OVC025
     FM302100 20010G15KT 4SM -RA BR BKN025 OVC050
     FM310400 22005KT 5SM -RA OVC050
     FM311200 22005KT P6SM -RA BKN050=



000
FTUS46 KPQR 301745
TAFHIO
TAF
KHIO 301745Z 3018/3118 36004KT P6SM BKN050 OVC060
     FM302300 10003KT 6SM -RA BR BKN050
     FM310300 10005KT 5SM -RA BR SCT025 BKN050
     FM311200 22005KT P6SM -RA BKN025=



000
FTUS46 KPQR 301745
TAFEUG
TAF
KEUG 301745Z 3018/3118 23004KT 1 1/2SM BR SCT002 SCT050
     FM302100 17004KT 3SM -RA BR SCT015 OVC050
     FM302300 19004KT 6SM -RA OVC050
     FM310400 VRB04KT 4SM -RA BR BKN015 OVC035=



000
FTUS46 KPQR 301745
TAFPDX
TAF
KPDX 301745Z 3018/3118 12010KT 6SM -RA BR SCT050 BKN100
     FM302300 11008KT 5SM -RA BKN050
     FM310300 14005KT 5SM -RA BR SCT025 BKN040
     FM311200 18005KT 6SM -RA BR BKN025=



000
FTUS46 KPQR 301745
TAFTTD
TAF
KTTD 301745Z 3018/3118 09015G23KT P6SM -RA BKN050 OVC080
     FM310000 08012KT 6SM -RA BR OVC050
     FM310300 09010KT 5SM -RA BR OVC025
     FM311300 09005KT 4SM -RA BR SCT015 BKN025=



000
FTUS46 KPQR 301745
TAFAST
TAF
KAST 301745Z 3018/3118 14006KT P6SM -RA OVC025
     FM302100 20010G15KT 4SM -RA BR BKN025 OVC050
     FM310400 22005KT 5SM -RA OVC050
     FM311200 22005KT P6SM -RA BKN050=



000
FTUS46 KPQR 301745
TAFONP
TAF
KONP 301745Z 3018/3118 12007KT P6SM -RA OVC025
     FM302100 19010G20KT 5SM -RA BR BKN025 OVC050
     FM310400 21005KT 5SM -RA OVC050
     FM311200 23006KT P6SM BKN050=



000
FTUS46 KPQR 301745
TAFHIO
TAF
KHIO 301745Z 3018/3118 36004KT P6SM BKN050 OVC060
     FM302300 10003KT 6SM -RA BR BKN050
     FM310300 10005KT 5SM -RA BR SCT025 BKN050
     FM311200 22005KT P6SM -RA BKN025=



000
FTUS46 KPQR 301745
TAFSLE
TAF
KSLE 301745Z 3018/3118 14006KT 2SM -RA BR BKN007
     FM302200 14005KT 3SM -RA BR OVC005
     FM310300 VRB04KT 4SM -RA BR BKN015 OVC035=



000
FTUS46 KPQR 301745
TAFEUG
TAF
KEUG 301745Z 3018/3118 23004KT 1 1/2SM BR SCT002 SCT050
     FM302100 17004KT 3SM -RA BR SCT015 OVC050
     FM302300 19004KT 6SM -RA OVC050
     FM310400 VRB04KT 4SM -RA BR BKN015 OVC035=



000
FTUS46 KPQR 301707 AAA
TAFHIO
TAF AMD
KHIO 301707Z 3017/3112 36004KT P6SM BKN050 OVC060
     FM302100 12003KT 4SM -RA BR OVC050
     FM310100 14005KT 3SM -RA BR BKN015 OVC030=



000
FTUS46 KPQR 301705 AAD
TAFEUG
TAF AMD
KEUG 301705Z 3017/3112 23004KT 3/4SM BR OVC002
     FM302000 17004KT 4SM -RA BR SCT015 OVC050
     FM302300 19004KT 6SM -RA OVC050
     FM310400 VRB04KT 4SM -RA BR BKN015 OVC035=



000
FTUS46 KPQR 301705 AAD
TAFEUG
TAF AMD
KEUG 301705Z 3017/3112 23004KT 3/4SM BR OVC002
     FM302000 17004KT 4SM -RA BR SCT015 OVC050
     FM302300 19004KT 6SM -RA OVC050
     FM310400 VRB04KT 4SM -RA BR BKN015 OVC035=



000
FTUS46 KPQR 301609 AAC
TAFEUG
TAF AMD
KEUG 301609Z 3016/3112 00000KT 1/4SM FG OVC002
     FM302000 17004KT 4SM -RA BR SCT015 OVC050
     FM302300 19004KT 6SM -RA OVC050
     FM310400 VRB04KT 4SM -RA BR BKN015 OVC035=



000
FTUS46 KPQR 301601 AAB
TAFONP
TAF AMD
KONP 301601Z 3016/3112 10005KT P6SM BKN030
     FM301800 16009G18KT 4SM RA BR BKN007
     FM302100 17010G20KT 5SM -RA BR OVC050
     FM310000 19011KT 2SM -RA BR SCT007 OVC050=



000
FTUS46 KPQR 301457 AAB
TAFEUG
TAF AMD
KEUG 301457Z 3015/3112 04004KT 6SM -RA SCT003 OVC045
      TEMPO 3015/3017 1/2SM -RA BCFG BKN002
     FM301700 17004KT 4SM -RA BR SCT015 OVC050
     FM302100 19004KT 6SM -RA OVC050
     FM310300 VRB04KT 4SM -RA BR BKN015 OVC035=



000
FTUS46 KPQR 301454 AAA
TAFPDX
TAF AMD
KPDX 301454Z 3015/3112 12010KT P6SM -RA BKN050 OVC100
     FM302100 11008KT P6SM -RA OVC050
     FM310100 14005KT 5SM -RA BR SCT025 OVC040=



000
FTUS46 KPQR 301440 AAA
TAFONP
TAF AMD
KONP 301440Z 3015/3112 12010KT P6SM RA SCT008 BKN014 OVC025
     FM301600 16009G18KT 4SM RA BR BKN007
     FM301900 17010G20KT 5SM -RA BR OVC050
     FM310000 19011KT 2SM -RA BR SCT007 OVC050=



000
FTUS46 KPQR 301332 AAA
TAFEUG
TAF AMD
KEUG 301332Z 3014/3112 04004KT 6SM -RA SCT003 OVC045
      TEMPO 3014/3017 2SM -RA BR BKN003
     FM301700 17004KT 4SM -RA BR SCT015 OVC050
     FM302100 19004KT 6SM -RA OVC050
     FM310300 VRB04KT 4SM -RA BR BKN015 OVC035=



000
FTUS46 KPQR 301120
TAFSLE
TAF
KSLE 301120Z 3012/3112 VRB03KT 2SM -RA BR OVC003
      TEMPO 3012/3014 1/2SM FG OVC002
     FM301400 21007KT 3SM -RA BR BKN003 OVC050
     FM301800 14006KT 3SM -RA BR SCT007 OVC035
     FM310300 VRB04KT 4SM -RA BR BKN015 OVC035=



000
FTUS46 KPQR 301120
TAFPDX
TAF
KPDX 301120Z 3012/3112 10006KT P6SM -RA BKN040 OVC080
     FM301400 10010G15KT 6SM -RA BR OVC040
     FM302100 11008KT P6SM -RA OVC050
     FM310100 14005KT 5SM -RA BR SCT025 OVC040=



000
FTUS46 KPQR 301120
TAFAST
TAF
KAST 301120Z 3012/3112 11007KT P6SM -RA BKN040 OVC080
     FM301400 14008KT 2SM RA BR SCT015 OVC035
     FM301800 17010KT 4SM -RA BR SCT025 OVC050
     FM302200 21012KT 4SM -RA BR BKN030 OVC050=



000
FTUS46 KPQR 301120
TAFONP
TAF
KONP 301120Z 3012/3112 09010KT P6SM -RA OVC050
     FM301400 12010KT 6SM -RA SCT012 OVC050
     FM301600 16009G18KT 4SM RA BR OVC007
     FM301900 17010G20KT 5SM -RA BR OVC050
     FM310000 19011KT 2SM -RA BR SCT007 OVC050=



000
FTUS46 KPQR 301120
TAFTTD
TAF
KTTD 301120Z 3012/3112 09015G23KT P6SM -RA BKN050 OVC080
     FM310000 08012KT P6SM -RA OVC050
     FM310300 09010KT 5SM -RA BR OVC035
     FM310600 09005KT 4SM -RA BR SCT015 OVC025=



000
FTUS46 KPQR 301120
TAFEUG
TAF
KEUG 301120Z 3012/3112 04004KT 6SM -RA SCT012 OVC045
     FM301700 17004KT 4SM -RA BR SCT015 OVC050
     FM302100 19004KT 6SM -RA OVC050
     FM310300 VRB04KT 4SM -RA BR BKN015 OVC035=



000
FTUS46 KPQR 301120
TAFHIO
TAF
KHIO 301120Z 3012/3112 VRB03KT 5SM -RA BR SCT007 OVC045
     FM301700 VRB03KT 2SM -RA BR SCT007 OVC035
     FM301900 12003KT 4SM -RA BR OVC050
     FM310100 14005KT 3SM -RA BR BKN015 OVC030=



000
FTUS46 KPQR 300849 AAA
TAFPDX
TAF AMD
KPDX 300849Z 3009/3106 10006KT P6SM -RA BKN040 OVC080
     FM301400 10010G15KT 6SM -RA BR SCT012 OVC040
     FM302100 11008KT P6SM -RA OVC050
     FM310100 14005KT 5SM -RA BR SCT025 OVC040=



000
FTUS46 KPQR 300830 AAA
TAFSLE
TAF AMD
KSLE 300830Z 3009/3106 04004KT 6SM -RA BR SCT003 OVC080
      TEMPO 3009/3011 4SM BR BKN003
     FM301100 VRB03KT 2SM -RA BR SCT015 OVC045
     FM301800 14005KT 5SM -RA BR OVC035=



000
FTUS46 KPQR 300520
TAFTTD
TAF
KTTD 300520Z 3006/3106 09010KT P6SM -RA BKN040 BKN080 OVC100
     FM301200 08013G18KT P6SM -RA OVC050
     FM301400 09015G23KT P6SM -RA SCT012 OVC040
     FM310000 08012KT P6SM -RA OVC050
     FM310300 09006KT P6SM -RA OVC025=



000
FTUS46 KPQR 300520
TAFONP
TAF
KONP 300520Z 3006/3106 09010KT 5SM -RA BR SCT012 OVC050
     FM301600 16009G18KT 2SM RA BR OVC007
     FM301900 17010G20KT 5SM -RA BR OVC050=



000
FTUS46 KPQR 300520
TAFAST
TAF
KAST 300520Z 3006/3106 11007KT P6SM -RA BKN040 OVC080
     FM301200 14008KT 2SM RA BR SCT015 OVC035
     FM301800 17010KT 4SM -RA BR OVC050=



000
FTUS46 KPQR 300520
TAFHIO
TAF
KHIO 300520Z 3006/3106 VRB03KT 6SM -RA BKN040 OVC100
     FM301200 14005KT 4SM -RA BR SCT007 OVC020
     FM301700 VRB03KT 2SM -RA BR OVC007
     FM301900 12003KT 4SM -RA BR OVC050=



000
FTUS46 KPQR 300520
TAFPDX
TAF
KPDX 300520Z 3006/3106 10006KT P6SM -RA BKN040 OVC080
     FM301400 10010G15KT P6SM -RA SCT012 OVC040
     FM302100 11008KT P6SM -RA OVC050=



000
FTUS46 KPQR 300520
TAFEUG
TAF
KEUG 300520Z 3006/3106 04004KT 6SM -RA SCT012 OVC080
     FM301700 17004KT 4SM -RA BR SCT015 OVC050
     FM302100 19004KT 6SM -RA OVC050=



000
FTUS46 KPQR 300520
TAFSLE
TAF
KSLE 300520Z 3006/3106 04004KT 6SM -RA SCT030 OVC080
     FM301100 VRB03KT 2SM -RA BR SCT015 OVC045
     FM301800 14005KT 5SM -RA BR OVC035=



000
FTUS46 KPQR 300401 AAD
TAFONP
TAF AMD
KONP 300401Z 3004/3024 19006KT 6SM -RA BR BKN050
     FM300500 09010KT 3SM -RA BR SCT012 OVC040
     FM301600 16009G18KT 2SM RA BR OVC007
     FM301900 17010G20KT 5SM -RA BR OVC050=



000
FTUS46 KPQR 300302 AAC
TAFONP
TAF AMD
KONP 300302Z 3003/3024 19006KT 1SM -RA BR BKN002 BKN030 BKN050
     FM300500 09010KT 3SM -RA BR SCT012 OVC040
     FM301600 16009G18KT 2SM RA BR OVC007
     FM301900 17010G20KT 5SM -RA BR OVC050=



000
FTUS46 KPQR 300300 AAA
TAFPDX
TAF AMD
KPDX 300300Z 3003/3024 10003KT P6SM BKN060 BKN100 BKN200
     FM300800 10006KT P6SM -RA BKN040 OVC080
     FM301400 10010KT P6SM -RA SCT012 OVC040=



000
FTUS46 KPQR 300203 AAB
TAFONP
TAF AMD
KONP 300203Z 3002/3024 19006KT 5SM -RA BR SCT030 BKN050
     FM300500 09010KT 3SM -RA BR SCT012 OVC040
     FM301600 16009G18KT 2SM RA BR OVC007
     FM301900 17010G20KT 5SM -RA BR OVC050=



000
FTUS46 KPQR 300120 AAA
TAFONP
TAF AMD
KONP 300120Z 3001/3024 19006KT 1SM BR BKN001 BKN030 BKN050
     FM300500 09010KT 3SM -RA BR SCT012 OVC040
     FM301600 16009G18KT 2SM RA BR OVC007
     FM301900 17010G20KT 5SM -RA BR OVC050=



000
FTUS46 KPQR 292337
TAFONP
TAF
KONP 292337Z 3000/3024 19006KT 2SM BR SCT001 BKN030 BKN050
     FM300300 14005KT P6SM SCT050 OVC100
     FM300500 09010KT 3SM -RA BR SCT012 OVC040
     FM301600 16009G18KT 2SM RA BR OVC007
     FM301900 17010G20KT 5SM -RA BR OVC050=



000
FTUS46 KPQR 292337
TAFAST
TAF
KAST 292337Z 3000/3024 35009KT P6SM VCSH SCT025 BKN050
     FM300200 14005KT P6SM OVC120
     FM300700 11007KT P6SM -RA BKN040 OVC080
     FM301200 14008KT 2SM RA BR SCT015 OVC025
     FM301800 17010KT 4SM -RA BR OVC050=



000
FTUS46 KPQR 292337
TAFHIO
TAF
KHIO 292337Z 3000/3024 13003KT P6SM SCT020 BKN050 BKN100
     FM300600 VRB03KT 6SM -RA BKN040 OVC080
     FM301000 14005KT 4SM -RA BR BKN007 OVC020
     FM301500 VRB03KT 2SM -RA BR OVC007
     FM301900 12003KT 4SM -RA BR OVC050=



000
FTUS46 KPQR 292337
TAFSLE
TAF
KSLE 292337Z 3000/3024 VRB04KT P6SM BKN050 BKN100 BKN200
     FM300600 04004KT 6SM -RA OVC030
     FM301100 VRB03KT 2SM -RA BR BKN015 OVC025
     FM301800 14005KT 5SM -RA BR OVC035=



000
FTUS46 KPQR 292337
TAFEUG
TAF
KEUG 292337Z 3000/3024 15009KT P6SM VCSH FEW025 BKN050 OVC120
     FM300400 04004KT 6SM -RA SCT012 OVC040
     FM301000 25005KT 2SM -RA BR SCT007 BKN015
     FM301700 17004KT 4SM BR BKN007
     FM301900 19004KT P6SM OVC050=



000
FTUS46 KPQR 292337
TAFTTD
TAF
KTTD 292337Z 3000/3024 09008KT P6SM OVC100
     FM300600 09010KT P6SM -RA BKN040 OVC080
     FM300900 08013G20KT P6SM -RA OVC050
     FM301400 09014G20KT P6SM -RA SCT012 OVC040
     FM302100 08012KT P6SM -RA OVC050=



000
FTUS46 KPQR 292337
TAFPDX
TAF
KPDX 292337Z 3000/3024 10005KT P6SM SCT050 BKN100 BKN200
     FM300800 10006KT P6SM -RA BKN040 OVC080
     FM301400 10010KT P6SM -RA SCT012 OVC040=



000
FTUS46 KPQR 292102 AAB
TAFPDX
TAF AMD
KPDX 292102Z 2921/3018 10008KT P6SM SCT020 BKN050
     FM300000 10005KT P6SM SCT050 BKN200
     FM300600 10006KT P6SM -RA BKN040 OVC080
     FM301400 10010KT P6SM -RA SCT012 OVC040=



000
FTUS46 KPQR 292101 AAA
TAFHIO
TAF AMD
KHIO 292101Z 2921/3018 16005KT P6SM BKN013 BKN060
     FM300000 13003KT P6SM SCT050 BKN200
     FM300600 VRB03KT 6SM -RA BKN040 OVC080
     FM301000 14005KT 4SM -RA BR BKN007 OVC020
     FM301500 VRB03KT 2SM -RA BR OVC007=



000
FTUS46 KPQR 292101 AAB
TAFTTD
TAF AMD
KTTD 292101Z 2921/3018 09005KT P6SM VCSH BKN017 OVC035
     FM292200 VRB04KT P6SM VCSH SCT025 BKN050
     FM300000 09005KT P6SM OVC100
     FM300600 09010KT P6SM -RA BKN040 OVC080
     FM301400 10014G20KT P6SM -RA SCT012 OVC040=



000
FTUS46 KPQR 292100 AAB
TAFONP
TAF AMD
KONP 292100Z 2921/3018 19006KT P6SM SCT020 BKN050
     FM300300 14005KT P6SM SCT050 OVC100
     FM300400 09010KT 3SM -RA BR SCT012 OVC040
     FM301600 16009G18KT 2SM RA BR OVC007=



000
FTUS46 KPQR 291922 AAA
TAFTTD
TAF AMD
KTTD 291922Z 2919/3018 VRB04KT P6SM VCSH SCT008 BKN025 BKN050
     FM292200 VRB04KT P6SM VCSH SCT025 BKN050
     FM300000 09005KT P6SM OVC100
     FM300600 09010KT P6SM -RA BKN040 OVC080
     FM301400 10014G20KT P6SM -RA SCT012 OVC040=



000
FTUS46 KPQR 291918 AAA
TAFONP
TAF AMD
KONP 291918Z 2919/3018 20005KT 2SM BR SCT004 BKN010 OVC020
     FM292300 19006KT P6SM SCT020 BKN050
     FM300300 14005KT P6SM SCT050 OVC100
     FM300400 09010KT 3SM -RA BR SCT012 OVC040
     FM301600 16009G18KT 2SM RA BR OVC007=



000
FTUS46 KPQR 291756 AAA
TAFPDX
TAF AMD
KPDX 291756Z 2918/3018 17005KT P6SM -SHRA SCT025 BKN060
     FM291900 18008KT P6SM SCT025 BKN060
     FM300000 12005KT P6SM SCT050 BKN200
     FM300600 10006KT P6SM -RA BKN040 OVC080
     FM301400 10010KT P6SM -RA SCT012 OVC040=



000
FTUS46 KPQR 291737
TAFHIO
TAF
KHIO 291737Z 2918/3018 00000KT P6SM VCSH BKN005 OVC017
     FM291900 16003KT P6SM VCSH SCT012 BKN060
     FM300000 13003KT P6SM SCT050 BKN200
     FM300600 VRB03KT 6SM -RA BKN040 OVC080
     FM301000 14005KT 4SM -RA BR BKN007 OVC020
     FM301500 VRB03KT 2SM -RA BR OVC007=



000
FTUS46 KPQR 291737
TAFTTD
TAF
KTTD 291737Z 2918/3018 VRB03KT P6SM -RA BKN009 OVC013
     FM291830 VRB04KT P6SM VCSH SCT025 BKN050
     FM300000 09005KT P6SM OVC100
     FM300600 09010KT P6SM -RA BKN040 OVC080
     FM301400 10014G20KT P6SM -RA SCT012 OVC040=



000
FTUS46 KPQR 291737
TAFONP
TAF
KONP 291737Z 2918/3018 20005KT 5SM BR SCT004 BKN035
     FM291900 19006KT P6SM SCT020 BKN050
     FM300300 14005KT P6SM SCT050 OVC100
     FM300400 09010KT 3SM -RA BR SCT012 OVC040
     FM301600 16009G18KT 2SM RA BR OVC007=



000
FTUS46 KPQR 291737
TAFPDX
TAF
KPDX 291737Z 2918/3018 17005KT P6SM -SHRA SCT025 BKN060
      TEMPO 2918/2919 4SM -RA BR BKN009 OVC025
     FM291900 18008KT P6SM SCT025 BKN060
     FM300000 12005KT P6SM SCT050 BKN200
     FM300600 10006KT P6SM -RA BKN040 OVC080
     FM301400 10010KT P6SM -RA SCT012 OVC040=



000
FTUS46 KPQR 291737
TAFEUG
TAF
KEUG 291737Z 2918/3018 15009KT P6SM VCSH FEW025 SCT050 BKN080
     FM300300 VRB04KT P6SM OVC100
     FM300600 04004KT 6SM -RA SCT012 OVC040
     FM301000 25005KT 2SM -RA BR SCT007 BKN015=



000
FTUS46 KPQR 291737
TAFSLE
TAF
KSLE 291737Z 2918/3018 17005KT P6SM VCSH SCT035 BKN050
     FM292200 VRB04KT P6SM SCT050 BKN200
     FM300300 VRB04KT P6SM OVC100
     FM300600 04004KT 6SM -RA OVC030
     FM301100 VRB03KT 2SM -RA BR BKN015 OVC025=



000
FTUS46 KPQR 291737
TAFAST
TAF
KAST 291737Z 2918/3018 16007KT P6SM -SHRA SCT012 BKN025 OVC050
     FM291900 20009KT P6SM VCSH SCT025 BKN050
     FM300200 14005KT P6SM OVC120
     FM300500 11007KT P6SM -RA BKN040 OVC080
     FM301200 14008KT 2SM RA BR SCT015 OVC025=



000
FTUS46 KPQR 291725 AAC
TAFHIO
TAF AMD
KHIO 291725Z 2917/3012 00000KT P6SM VCSH BKN005 OVC012
     FM291900 16003KT P6SM VCSH SCT012 BKN060
     FM300000 13003KT P6SM SCT050 BKN200
     FM300600 VRB03KT 6SM -RA BKN040 OVC080=



000
FTUS46 KPQR 291703 AAB
TAFSLE
TAF AMD
KSLE 291703Z 2917/3012 17005KT P6SM VCSH SCT035 BKN050
     FM292200 VRB04KT P6SM SCT050 BKN200
     FM300300 VRB04KT P6SM OVC100
     FM300600 04004KT 6SM -RA OVC040=



000
FTUS46 KPQR 291702 AAB
TAFONP
TAF AMD
KONP 291702Z 2917/3012 20005KT 5SM BR SCT004 BKN035
     FM291800 19006KT P6SM SCT020 BKN050
     FM300300 14005KT P6SM SCT050 OVC100
     FM300400 09010KT 3SM -RA BR SCT012 OVC040=



000
FTUS46 KPQR 291659 AAC
TAFTTD
TAF AMD
KTTD 291659Z 2917/3012 VRB03KT P6SM -RA BKN009 OVC013
     FM291830 VRB04KT P6SM VCSH SCT025 BKN050
     FM300000 09005KT P6SM SCT050 BKN200
     FM300300 09007KT P6SM OVC100
     FM300600 09010KT P6SM -RA BKN040 OVC080=



000
FTUS46 KPQR 291641 AAE
TAFPDX
TAF AMD
KPDX 291641Z 2917/3012 17005KT P6SM -SHRA SCT025 BKN060
      TEMPO 2917/2919 4SM -RA BR BKN009 OVC025
     FM291900 18008KT P6SM VCSH SCT025 BKN060
     FM300000 12005KT P6SM SCT050 BKN200
     FM300600 10006KT P6SM -RA BKN040 OVC080=



000
FTUS46 KPQR 291619 AAD
TAFPDX
TAF AMD
KPDX 291619Z 2916/3012 17005KT P6SM -SHRA SCT025 BKN060
      TEMPO 2916/2919 4SM -RA BR BKN025 BKN040
     FM291900 18008KT P6SM VCSH SCT025 BKN060
     FM300000 12005KT P6SM SCT050 BKN200
     FM300600 10006KT P6SM -RA BKN040 OVC080=



000
FTUS46 KPQR 291612 AAA
TAFSLE
TAF AMD
KSLE 291612Z 2916/3012 21005KT 3SM -RA BR BKN024 OVC035
     FM291800 17005KT P6SM VCSH SCT035 BKN050
     FM292200 VRB04KT P6SM SCT050 BKN200
     FM300300 VRB04KT P6SM OVC100
     FM300600 04004KT 6SM -RA OVC040=



000
FTUS46 KPQR 291608 AAB
TAFTTD
TAF AMD
KTTD 291608Z 2916/3012 VRB04KT P6SM -RA BKN009
     FM291700 10004KT P6SM VCSH SCT025 BKN050
     FM300000 09005KT P6SM SCT050 BKN200
     FM300300 09007KT P6SM OVC100
     FM300600 09010KT P6SM -RA BKN040 OVC080=



000
FTUS46 KPQR 291606 AAC
TAFPDX
TAF AMD
KPDX 291606Z 2916/3012 17005KT P6SM -SHRA SCT025 BKN060
      TEMPO 2916/2917 BKN040
     FM291700 18008KT P6SM VCSH SCT025 BKN060
     FM300000 12005KT P6SM SCT050 BKN200
     FM300600 10006KT P6SM -RA BKN040 OVC080=



000
FTUS46 KPQR 291559 AAB
TAFHIO
TAF AMD
KHIO 291559Z 2916/3012 00000KT P6SM VCSH SCT004 OVC012
      TEMPO 2916/2917 BKN005
     FM291900 16003KT P6SM VCSH SCT012 BKN060
     FM300000 13003KT P6SM SCT050 BKN200
     FM300600 VRB03KT 6SM -RA BKN040 OVC080=



000
FTUS46 KPQR 291521 AAA
TAFONP
TAF AMD
KONP 291521Z 2915/3012 20005KT 2SM BR OVC006
     FM291700 19010KT P6SM VCSH SCT007 BKN020 OVC050
     FM292000 19006KT P6SM SCT020 BKN050
     FM300300 14005KT P6SM SCT050 OVC100
     FM300400 09010KT 3SM -RA BR SCT012 OVC040=



000
FTUS46 KPQR 291516 AAA
TAFHIO
TAF AMD
KHIO 291516Z 2915/3012 00000KT 1SM BR VCSH SCT004 OVC012
     FM291900 16003KT P6SM VCSH SCT012 BKN060
     FM300000 13003KT P6SM SCT050 BKN200
     FM300600 VRB03KT 6SM -RA BKN040 OVC080=



000
FTUS46 KPQR 291509 AAB
TAFPDX
TAF AMD
KPDX 291509Z 2915/3012 19011KT P6SM -SHRA SCT025 OVC040
     FM291700 18008KT P6SM VCSH SCT025 BKN060
     FM300000 12005KT P6SM SCT050 BKN200
     FM300600 10006KT P6SM -RA BKN040 OVC080=



000
FTUS46 KPQR 291505 AAA
TAFEUG
TAF AMD
KEUG 291505Z 2915/3012 15009KT P6SM VCSH FEW025 SCT050 BKN080
     FM300300 VRB04KT P6SM OVC100
     FM300600 04004KT 6SM -RA SCT012 OVC040=



000
FTUS46 KPQR 291400 AAA
TAFPDX
TAF AMD
KPDX 291400Z 2914/3012 19011KT P6SM -SHRA SCT025 OVC040
      TEMPO 2914/2916 5SM -SHRA SCT015 BKN025
     FM291700 18008KT P6SM VCSH SCT025 BKN060
     FM300000 12005KT P6SM SCT050 BKN200
     FM300600 10006KT P6SM -RA BKN040 OVC080=



000
FTUS46 KPQR 291358 AAA
TAFTTD
TAF AMD
KTTD 291358Z 2914/3012 VRB04KT P6SM -SHRA SCT009 OVC035
      TEMPO 2914/2916 4SM -SHRA BR BKN009
     FM291700 10004KT P6SM VCSH SCT025 BKN050
     FM300000 09005KT P6SM SCT050 BKN200
     FM300300 09007KT P6SM OVC100
     FM300600 09010KT P6SM -RA BKN040 OVC080=



000
FTUS46 KPQR 291211 AAA
TAFAST
TAF AMD
KAST 291211Z 2912/3012 21010KT P6SM -SHRA SCT012 BKN025 OVC050
     FM291600 20009KT P6SM VCSH SCT025 BKN050
     FM300200 14005KT P6SM OVC120
     FM300500 11007KT 6SM -RA BKN040 OVC080=



000
FTUS46 KPQR 291123
TAFHIO
TAF
KHIO 291123Z 2912/3012 17009KT P6SM -SHRA SCT025 OVC060
      TEMPO 2913/2916 BKN025 BKN060
     FM291900 16003KT P6SM VCSH SCT025 BKN060
     FM300000 13003KT P6SM SCT050 BKN200
     FM300600 VRB03KT 6SM -RA BKN040 OVC080=



000
FTUS46 KPQR 291123
TAFAST
TAF
KAST 291123Z 2912/3012 21010G18KT P6SM -SHRA VCTS SCT012 BKN025CB
      OVC050
      TEMPO 2912/2914 4SM SHRA BKN006 BKN015
     FM291700 20009KT P6SM SCT025 BKN050
     FM300200 14005KT P6SM OVC120
     FM300500 11007KT 6SM -RA BKN040 OVC080=



000
FTUS46 KPQR 291123
TAFEUG
TAF
KEUG 291123Z 2912/3012 17009KT P6SM -SHRA FEW025 BKN050
     FM291400 15009KT P6SM VCSH SCT025 BKN050
      TEMPO 2914/2917 BKN025
     FM300300 VRB04KT P6SM OVC100
     FM300600 04004KT 6SM -RA SCT012 OVC040=



000
FTUS46 KPQR 291123
TAFSLE
TAF
KSLE 291123Z 2912/3012 17009KT P6SM -SHRA SCT050 BKN070
      TEMPO 2914/2917 SCT025 BKN050
     FM291800 17005KT P6SM VCSH SCT035 BKN050
     FM292200 VRB04KT P6SM SCT050 BKN200
     FM300300 VRB04KT P6SM OVC100
     FM300600 04004KT 6SM -RA OVC040=



000
FTUS46 KPQR 291123
TAFONP
TAF
KONP 291123Z 2912/3012 21012G22KT 5SM -SHRA BR SCT007 OVC012
      TEMPO 2912/2916 2SM -SHRA BR BKN007
     FM291700 19010KT P6SM VCSH SCT007 BKN020 OVC050
     FM292000 19006KT P6SM SCT020 BKN050
     FM300300 14005KT P6SM SCT050 OVC100
     FM300400 09010KT 3SM -RA BR SCT012 OVC040=



000
FTUS46 KPQR 291123
TAFTTD
TAF
KTTD 291123Z 2912/3012 VRB04KT P6SM -SHRA SCT022 BKN050
      TEMPO 2912/2915 4SM -SHRA BR BKN022
     FM291700 10004KT P6SM VCSH SCT025 BKN050
     FM300000 09005KT P6SM SCT050 BKN200
     FM300300 09007KT P6SM OVC100
     FM300600 09010KT P6SM -RA BKN040 OVC080=



000
FTUS46 KPQR 291123
TAFPDX
TAF
KPDX 291123Z 2912/3012 19011KT P6SM -SHRA SCT025 BKN070
      TEMPO 2912/2916 SCT015 BKN035 OVC070
     FM291700 18008KT P6SM VCSH SCT025 BKN060
     FM300000 12005KT P6SM SCT050 BKN200
     FM300600 10006KT P6SM -RA BKN040 OVC080=



000
FTUS46 KPQR 291012 AAA
TAFTTD
TAF AMD
KTTD 291012Z 2910/3006 VRB04KT P6SM -SHRA SCT020 BKN050
      TEMPO 2914/2916 BKN020
     FM291700 10004KT P6SM VCSH SCT025 BKN050
     FM300000 09005KT P6SM SCT050 BKN200=



000
FTUS46 KPQR 291012 AAB
TAFHIO
TAF AMD
KHIO 291012Z 2910/3006 17009KT P6SM -SHRA FEW015 SCT025 OVC050
      TEMPO 2910/2914 6SM -SHRA SCT015 BKN025
     FM291900 16003KT P6SM VCSH SCT025 BKN050
     FM300000 13003KT P6SM SCT050 BKN200=



000
FTUS46 KPQR 291010 AAA
TAFEUG
TAF AMD
KEUG 291010Z 2910/3006 17009KT P6SM -SHRA FEW025 BKN050
     FM291400 15009KT P6SM SCT025 BKN050
      TEMPO 2914/2917 BKN025
     FM292100 16005KT P6SM SCT050 BKN250
     FM300300 VRB04KT P6SM BKN100 OVC250=



000
FTUS46 KPQR 291009 AAB
TAFONP
TAF AMD
KONP 291009Z 2910/3006 21013G22KT 4SM -SHRA BR BKN007 OVC012
     FM291700 19011KT P6SM VCSH SCT007 BKN020 OVC050
     FM292000 19006KT P6SM SCT020 BKN050
     FM300300 14005KT P6SM SCT050 OVC100=



000
FTUS46 KPQR 291008 AAB
TAFAST
TAF AMD
KAST 291008Z 2910/3006 21012G22KT P6SM -SHRA VCTS SCT012 BKN025CB
      OVC050
      TEMPO 2910/2914 4SM SHRA BKN006 BKN015
     FM291800 17006KT P6SM SCT025 BKN050
     FM300200 14005KT P6SM OVC120=



000
FTUS46 KPQR 290956 AAB
TAFSLE
TAF AMD
KSLE 290956Z 2910/3006 17009KT P6SM -SHRA SCT050 BKN070
      TEMPO 2913/2916 SCT025 BKN050
     FM291800 17005KT P6SM VCSH SCT035 BKN050
     FM292200 VRB04KT P6SM SCT050 BKN200=



000
FTUS46 KPQR 290859 AAA
TAFHIO
TAF AMD
KHIO 290859Z 2909/3006 17009KT P6SM -SHRA FEW015 SCT025 OVC050
      TEMPO 2909/2912 6SM -SHRA SCT015 BKN025
     FM291900 16003KT P6SM VCSH SCT015 BKN050
     FM300000 13003KT P6SM SCT050 BKN200=



000
FTUS46 KPQR 290857 AAA
TAFPDX
TAF AMD
KPDX 290857Z 2909/3006 19010KT P6SM -SHRA SCT025 BKN070
     FM291700 18008KT P6SM VCSH SCT015 BKN050
     FM300000 12005KT P6SM SCT050 BKN200=



000
FTUS46 KPQR 290853 AAA
TAFONP
TAF AMD
KONP 290853Z 2909/3006 21013G22KT 3SM -SHRA BR BKN007 OVC012
     FM291500 19011KT P6SM VCSH SCT007 BKN020
     FM291800 19006KT P6SM SCT020 BKN050
     FM300300 14005KT P6SM SCT050 OVC100=



000
FTUS46 KPQR 290703 AAA
TAFAST
TAF AMD
KAST 290703Z 2907/3006 21012G22KT P6SM -SHRA VCTS SCT025CB OVC050
      TEMPO 2907/2909 4SM SHRA SCT006 BKN015
     FM290900 20006KT P6SM VCSH BKN025 BKN050
     FM291700 17006KT P6SM SCT025 BKN050
     FM300200 14005KT P6SM OVC120=



000
FTUS46 KPQR 290659 AAA
TAFSLE
TAF AMD
KSLE 290659Z 2907/3006 17009KT P6SM -SHRA FEW015 BKN060
     FM291100 17006KT P6SM VCSH BKN015 BKN050
     FM291800 17005KT P6SM SCT015 BKN050
     FM292200 VRB04KT P6SM SCT050 BKN200=



000
FTUS46 KPQR 290533
TAFTTD
TAF
KTTD 290533Z 2906/3006 VRB04KT P6SM VCSH SCT015 BKN050
      TEMPO 2906/2908 1SM BR SCT002 BKN015
     FM290900 VRB04KT P6SM BKN015 BKN060
     FM291700 10004KT P6SM SCT015 BKN050
     FM300000 09005KT P6SM SCT050 BKN200=



000
FTUS46 KPQR 290533
TAFONP
TAF
KONP 290533Z 2906/3006 21013G22KT 5SM -SHRA BR SCT007 OVC012
     FM290800 20010KT 6SM -SHRA BKN007 BKN020
     FM291500 19008KT P6SM VCSH SCT007 BKN020
     FM291800 19006KT P6SM SCT020 BKN050
     FM300300 14005KT P6SM SCT050 OVC100=



000
FTUS46 KPQR 290533
TAFAST
TAF
KAST 290533Z 2906/3006 21012G22KT P6SM -SHRA VCTS SCT025CB OVC050
      TEMPO 2906/2909 4SM SHRA BKN025
     FM290900 20006KT P6SM VCSH BKN025 BKN050
     FM291700 17006KT P6SM SCT025 BKN050
     FM300200 14005KT P6SM OVC120=



000
FTUS46 KPQR 290533
TAFHIO
TAF
KHIO 290533Z 2906/3006 17007KT P6SM -SHRA SCT012 BKN050
      TEMPO 2906/2908 17012G20KT 4SM SHRA BKN012
     FM290800 17006KT P6SM VCSH BKN015 BKN050
     FM291900 16003KT P6SM SCT015 BKN050
     FM300000 13003KT P6SM SCT050 BKN200=



000
FTUS46 KPQR 290533
TAFPDX
TAF
KPDX 290533Z 2906/3006 18010KT P6SM -SHRA SCT015 BKN070
     FM290900 18005KT P6SM VCSH BKN015 BKN050
     FM291700 15005KT P6SM SCT015 BKN050
     FM300000 12005KT P6SM SCT050 BKN200=



000
FTUS46 KPQR 290533
TAFEUG
TAF
KEUG 290533Z 2906/3006 15007KT P6SM -SHRA SCT025 BKN060
     FM291000 18005KT P6SM VCSH SCT007 BKN025
     FM291700 15005KT P6SM SCT025 BKN050
     FM292100 16005KT P6SM SCT050 BKN250
     FM300300 VRB04KT P6SM BKN100 OVC250=



000
FTUS46 KPQR 290533
TAFSLE
TAF
KSLE 290533Z 2906/3006 15008KT P6SM -SHRA SCT015 BKN060
      TEMPO 2906/2909 17012G20KT 4SM SHRA BKN015
     FM291100 17006KT P6SM VCSH BKN015 BKN050
     FM291800 17005KT P6SM SCT015 BKN050
     FM292200 VRB04KT P6SM SCT050 BKN200=



000
FTUS46 KPQR 290252 AAB
TAFTTD
TAF AMD
KTTD 290252Z 2903/2924 VRB04KT P6SM -SHRA SCT015 SCT025 OVC070
      TEMPO 2906/2909 17012G20KT 4SM SHRA
     FM290900 12005KT P6SM BKN025 OVC080
     FM291800 14004KT P6SM BKN050=



000
FTUS46 KPQR 290247 AAA
TAFEUG
TAF AMD
KEUG 290247Z 2903/2924 16007KT P6SM -SHRA SCT025 BKN050
     FM290900 19005KT P6SM VCSH SCT007 BKN025
     FM291600 15005KT P6SM SCT025 BKN050=



000
FTUS46 KPQR 290245 AAA
TAFPDX
TAF AMD
KPDX 290245Z 2903/2924 18010KT P6SM -SHRA SCT025 OVC070
      TEMPO 2906/2909 17012G20KT 4SM SHRA BKN025
     FM290900 18005KT P6SM VCSH BKN025 BKN050
     FM291800 15005KT P6SM SCT025 BKN050=



000
FTUS46 KPQR 290159 AAA
TAFHIO
TAF AMD
KHIO 290159Z 2902/2924 17009KT P6SM SHRA BKN009 OVC030
     FM290400 18007KT P6SM -SHRA SCT009 OVC030
      TEMPO 2904/2907 17012G20KT 4SM SHRA BKN022
     FM291200 18003KT P6SM VCSH SCT030 BKN050
     FM291900 16003KT P6SM BKN050=



000
FTUS46 KPQR 290154 AAA
TAFTTD
TAF AMD
KTTD 290154Z 2902/2924 09009KT 4SM -SHRA BKN015 OVC025
     FM290400 18006KT P6SM -SHRA SCT015 BKN025 OVC040
      TEMPO 2906/2909 17012G20KT 4SM SHRA
     FM291800 14004KT P6SM BKN050=



000
FTUS46 KPQR 290154 AAA
TAFTTD
TAF AMD
KTTD 290154Z 2902/2924 09009KT 4SM -SHRA BKN015 OVC025
     FM290400 18006KT P6SM -SHRA SCT015 BKN025 OVC040
      TEMPO 2906/2909 17012G20KT 4SM SHRA
     FM291800 14004KT P6SM BKN050=



000
FTUS46 KPQR 290141 AAA
TAFSLE
TAF AMD
KSLE 290141Z 2902/2924 18009KT P6SM -SHRA SCT015 OVC040
      TEMPO 2906/2909 17012G20KT 4SM SHRA BKN022 OVC030
     FM290900 19005KT P6SM VCSH BKN025 BKN040
     FM291800 17005KT P6SM SCT025 BKN050=



000
FTUS46 KPQR 290141 AAA
TAFSLE
TAF AMD
KSLE 290141Z 2902/2924 18009KT P6SM -SHRA SCT015 OVC040
      TEMPO 2906/2909 17012G20KT 4SM SHRA BKN022 OVC030
     FM290900 19005KT P6SM VCSH BKN025 BKN040
     FM291800 17005KT P6SM SCT025 BKN050=



000
FTUS46 KPQR 290128 AAA
TAFAST
TAF AMD
KAST 290128Z 2901/2924 20013G21KT P6SM -SHRA SCT025 BKN040
      TEMPO 2902/2905 4SM SHRA BKN025
     FM290500 21012KT P6SM -SHRA VCTS SCT025CB OVC050
     FM291200 20006KT P6SM VCSH SCT025 BKN050
     FM291900 18006KT P6SM BKN050=



000
FTUS46 KPQR 282337
TAFAST
TAF
KAST 282337Z 2900/2924 20015G25KT P6SM -SHRA SCT015 BKN025
      TEMPO 2902/2905 4SM SHRA BKN015
     FM290500 21012KT P6SM -SHRA VCTS SCT025CB OVC050
     FM291200 20006KT P6SM VCSH SCT025 BKN050
     FM291900 18006KT P6SM BKN050=



000
FTUS46 KPQR 282337
TAFONP
TAF
KONP 282337Z 2900/2924 20015G25KT 4SM -RADZ BR BKN007 BKN012 OVC025
     FM290200 18012G22KT 4SM SHRA BKN007 OVC015
     FM290600 20010KT 6SM -SHRA BKN007 BKN020
     FM291100 19008KT P6SM VCSH SCT007 BKN040
     FM291800 19006KT P6SM BKN050=



000
FTUS46 KPQR 282337
TAFTTD
TAF
KTTD 282337Z 2900/2924 09009KT 4SM -SHRA SCT015 OVC025
     FM290300 18006KT P6SM -SHRA BKN025 OVC040
      TEMPO 2906/2909 17012G20KT 4SM SHRA BKN022 OVC030
     FM290900 18005KT P6SM VCSH SCT030 BKN050
     FM291800 14004KT P6SM BKN050=



000
FTUS46 KPQR 282337
TAFSLE
TAF
KSLE 282337Z 2900/2924 17014KT P6SM -SHRA BKN025 OVC040
     FM290200 17011KT P6SM -SHRA BKN025 OVC040
      TEMPO 2907/2910 17012G20KT 4SM SHRA BKN022 OVC030
     FM291000 19005KT P6SM VCSH SCT025 BKN040
     FM291800 17005KT P6SM BKN050=



000
FTUS46 KPQR 282337
TAFPDX
TAF
KPDX 282337Z 2900/2924 10011KT P6SM -SHRA SCT023 OVC030
     FM290200 15010KT P6SM -SHRA BKN030 OVC040
      TEMPO 2906/2909 17012G20KT 4SM SHRA BKN022 OVC035
     FM290900 18005KT P6SM VCSH SCT025 BKN040
     FM291800 15005KT P6SM BKN050=



000
FTUS46 KPQR 282337
TAFHIO
TAF
KHIO 282337Z 2900/2924 18008KT P6SM SHRA SCT008 OVC025
      TEMPO 2904/2907 17012G20KT 4SM SHRA BKN022
     FM291200 18003KT P6SM VCSH SCT030 BKN050
     FM291900 16003KT P6SM BKN050=



000
FTUS46 KPQR 282337
TAFEUG
TAF
KEUG 282337Z 2900/2924 19010KT P6SM -SHRA BKN025 OVC035
     FM290300 19008KT P6SM -SHRA BKN025 OVC040
     FM291000 19005KT P6SM VCSH SCT007 OVC025
     FM291600 15005KT P6SM SCT025 BKN050=



000
FTUS46 KPQR 282140 AAA
TAFTTD
TAF AMD
KTTD 282140Z 2822/2918 09012G22KT 5SM -RADZ BR BKN025 OVC040
     FM290000 20007KT P6SM -SHRA BKN035
      TEMPO 2906/2909 4SM SHRA BKN017 OVC030
     FM290900 19005KT P6SM VCSH BKN025=



000
FTUS46 KPQR 282139 AAB
TAFPDX
TAF AMD
KPDX 282139Z 2822/2918 14010KT 5SM -RADZ BKN025 OVC035
     FM290000 19012KT P6SM -SHRA BKN035
      TEMPO 2906/2909 17012G20KT 4SM SHRA BKN017 OVC030
     FM290900 19005KT P6SM VCSH SCT025 BKN040=



000
FTUS46 KPQR 282108 AAA
TAFPDX
TAF AMD
KPDX 282108Z 2821/2918 14010KT P6SM -SHRA BKN035
      TEMPO 2906/2909 17012G20KT 4SM SHRA BKN017 OVC030
     FM290900 19005KT P6SM VCSH SCT025 BKN040=



000
FTUS46 KPQR 282033 AAA
TAFONP
TAF AMD
KONP 282033Z 2821/2918 20012G22KT 1SM -RADZ BR OVC003
     FM290200 18012G22KT 4SM SHRA BKN007 OVC015
     FM290700 20010KT 6SM -SHRA BKN018 BKN040
     FM291100 19006KT P6SM VCSH SCT025 BKN040=



000
FTUS46 KPQR 282004 AAA
TAFHIO
TAF AMD
KHIO 282004Z 2820/2918 18010KT P6SM SHRA BKN025 OVC040
      TEMPO 2904/2907 17012G20KT 4SM SHRA
     FM290700 19005KT P6SM VCSH SCT025 BKN040
     FM291300 VRB03KT P6SM VCSH OVC025=



000
FTUS46 KPQR 281826 AAA
TAFEUG
TAF AMD
KEUG 281826Z 2818/2918 17012KT P6SM -SHRA OVC040
     FM291000 19005KT P6SM VCSH BKN025 OVC040=



000
FTUS46 KPQR 281746
TAFTTD
TAF
KTTD 281746Z 2818/2918 09018G30KT P6SM SHRA OVC040
     FM282200 11012KT P6SM -SHRA SCT025 OVC040
      TEMPO 2906/2909 4SM SHRA BKN017 OVC030
     FM290900 19005KT P6SM VCSH BKN025=



000
FTUS46 KPQR 281746
TAFHIO
TAF
KHIO 281746Z 2818/2918 15007KT P6SM SHRA SCT025 OVC040
      TEMPO 2904/2907 17012G20KT 4SM SHRA BKN017 OVC030
     FM290700 19005KT P6SM VCSH SCT025 BKN040
     FM291300 VRB03KT P6SM VCSH OVC025=



000
FTUS46 KPQR 281746
TAFONP
TAF
KONP 281746Z 2818/2918 19018G28KT 3SM SHRA BKN007 OVC015
     FM282000 20012G22KT 4SM -SHRA BKN007 OVC015
      TEMPO 2904/2907 2SM +SHRA OVC005
     FM290700 20010KT 6SM -SHRA BKN018 BKN040
     FM291100 19006KT P6SM VCSH SCT025 BKN040=



000
FTUS46 KPQR 281746
TAFSLE
TAF
KSLE 281746Z 2818/2918 17012KT P6SM -SHRA OVC040
      TEMPO 2907/2910 17012G20KT 4SM SHRA BKN017 OVC030
     FM291000 19005KT P6SM VCSH SCT025 BKN040=



000
FTUS46 KPQR 281746
TAFAST
TAF
KAST 281746Z 2818/2918 21015G25KT P6SM -SHRA BKN028 OVC040
     FM282100 20015G25KT P6SM -SHRA SCT015 BKN025
      TEMPO 2902/2905 4SM SHRA BKN015
     FM290500 21012KT P6SM -SHRA VCTS BKN025CB OVC050
     FM291200 17006KT P6SM VCSH OVC025=



000
FTUS46 KPQR 281746
TAFPDX
TAF
KPDX 281746Z 2818/2918 11015G25KT P6SM SHRA OVC040
     FM282100 16010KT P6SM -SHRA BKN035
      TEMPO 2906/2909 17012G20KT 4SM SHRA BKN017 OVC030
     FM290900 19005KT P6SM VCSH SCT025 BKN040=



000
FTUS46 KPQR 281746
TAFEUG
TAF
KEUG 281746Z 2818/2918 19012KT P6SM -SHRA OVC040
     FM291000 19005KT P6SM VCSH BKN025 OVC040=



000
FTUS46 KPQR 281501 AAA
TAFPDX
TAF AMD
KPDX 281501Z 2815/2912 12012KT P6SM SHRA SCT025 OVC040
     FM282000 15010KT P6SM -SHRA BKN025 OVC040
     FM290100 18008KT P6SM -SHRA SCT030 OVC050=



000
FTUS46 KPQR 281347 AAB
TAFAST
TAF AMD
KAST 281347Z 2814/2912 19014G28KT 5SM -RA OVC020
      TEMPO 2815/2817 2SM RA BR OVC010
     FM281700 21015G25KT P6SM -SHRA BKN028 OVC040
     FM282100 21015G25KT P6SM -SHRA SCT015 BKN025
     FM290200 21012KT P6SM -SHRA SCT015 SCT025 OVC050
     FM290700 20009KT P6SM -SHRA BKN025 OVC050=



000
FTUS46 KPQR 281137 AAA
TAFAST
TAF AMD
KAST 281137Z 2812/2912 15010KT 6SM -RA OVC025
     FM281400 19014G24KT 5SM -SHRA BKN025 OVC035
     FM282100 21015G25KT P6SM -SHRA SCT015 BKN025
     FM290200 21012KT P6SM -SHRA SCT015 SCT025 OVC050
     FM290700 20009KT P6SM -SHRA BKN025 OVC050=



000
FTUS46 KPQR 281133
TAFAST
TAF
KAST 281133Z 2812/2912 18015G28KT 3SM RA BR BKN015 OVC025
     FM281400 21014G24KT P6SM -SHRA SCT025 BKN035
     FM282100 21015G25KT P6SM -SHRA SCT015 BKN025
     FM290200 21012KT P6SM -SHRA SCT015 SCT025 OVC050
     FM290700 20009KT P6SM -SHRA BKN025 OVC050=



000
FTUS46 KPQR 281133
TAFTTD
TAF
KTTD 281133Z 2812/2912 09014G24KT P6SM -RA SCT045 OVC070
     FM281400 09015G25KT P6SM -RA SCT025 OVC040
     FM282000 11012KT P6SM -SHRA SCT025 OVC040
     FM290200 11008KT P6SM -SHRA SCT025 BKN040
     FM290800 20007KT P6SM -SHRA BKN025 OVC040=



000
FTUS46 KPQR 281133
TAFSLE
TAF
KSLE 281133Z 2812/2912 15009KT P6SM -RA OVC060
     FM281500 17010KT P6SM -RA SCT030 OVC050
     FM282200 19012KT 6SM -SHRA BKN025 OVC040
     FM290200 18008KT P6SM -SHRA SCT025 BKN040
     FM291000 19005KT P6SM -SHRA BKN025 OVC040=



000
FTUS46 KPQR 281133
TAFONP
TAF
KONP 281133Z 2812/2912 17015G28KT 6SM -RA BR SCT015 BKN022 OVC035
     FM281500 19025G35KT 4SM -SHRA BR SCT007 OVC016
     FM282300 20018G28KT 5SM -SHRA BR BKN015 OVC025
     FM290300 20015G22KT 5SM -SHRA BR SCT007 BKN015
     FM290700 20010KT 5SM -SHRA BR OVC015=



000
FTUS46 KPQR 281133
TAFPDX
TAF
KPDX 281133Z 2812/2912 12011KT P6SM -RA BKN050 OVC070
     FM281500 12012KT P6SM -RA SCT025 OVC040
     FM282000 15010KT P6SM -SHRA BKN025 OVC040
     FM290100 18008KT P6SM -SHRA SCT030 OVC050=



000
FTUS46 KPQR 281133
TAFEUG
TAF
KEUG 281133Z 2812/2912 16009KT P6SM -RA OVC060
     FM281600 19012KT P6SM -RA SCT030 OVC045
     FM282200 20010KT P6SM -RA BKN025 OVC035
     FM290400 19008KT P6SM -SHRA SCT025 BKN035
     FM291000 19005KT P6SM -SHRA BKN025 OVC040=



000
FTUS46 KPQR 281133
TAFHIO
TAF
KHIO 281133Z 2812/2912 12006KT P6SM -RA BKN045 OVC060
     FM281500 15007KT P6SM -RA SCT025 OVC040
     FM282000 18007KT P6SM -SHRA BKN028 OVC050
     FM290100 19006KT P6SM -SHRA SCT020 BKN040=



000
FTUS46 KPQR 281035 AAA
TAFAST
TAF AMD
KAST 281035Z 2811/2906 17007KT 6SM -RA BR BKN025 OVC035
     FM281200 19015G25KT 3SM RA BR SCT015 OVC025
     FM281500 20020G30KT 2SM RA BR BKN015 OVC025
     FM282100 21015G25KT P6SM -SHRA SCT015 BKN025
     FM290300 21012G20KT P6SM -SHRA SCT015 SCT025=



000
FTUS46 KPQR 280916 AAA
TAFPDX
TAF AMD
KPDX 280916Z 2809/2906 11012KT P6SM -RA OVC060
     FM281400 11012KT 6SM -RA SCT025 OVC040
     FM282100 15010KT P6SM -RA BKN025 OVC040
     FM290100 18008KT P6SM -SHRA SCT025 OVC040=



    US Dept of Commerce
    National Oceanic and Atmospheric Administration
    National Weather Service
    1325 East West Highway
    Silver Spring, MD 20910
    Page Author: NWS Internet Services Team
Disclaimer
Information Quality
Credits
Glossary
Privacy Policy
Freedom of Information Act (FOIA)
About Us
Career Opportunities